Anta, Peru
Current Conditions -  °F | °C
As of 4:00 AM on Saturday 29 Nov 2014 (Local Time) from SPRU Reporting Station
Overcast Overcast  
Wind Chill: 64°   Ceiling: 2000
Heat Index: 64°   Visibility: 5mi
Dew Point: 61°   Wind: 6mph
Humidity: 88%   Direction: 110°ESE
Pressure: 29.83"   Gusts: NA
Location:  9.35°S, 77.6°W
Report Text: SPRU 290900Z 11005KT 8000 OVC020 18/16 Q1010 RMK PP000
Loading
Personal Weather Stations






























Interactive Weather Map New forecast layout! Learn more

10-Day Weather Forecast

Advertisements
Track Severe Weather on mobile